עמוד ראשי
METAR-TAF:

METAR-TAF

שדות תעופה :

Fort Smith, הטריטוריות הצפון-מערביות, קנדה

קו רוחב: 60-01N, קו אורך: 111-57W, גובה: 203מטר

תצפית מזג אוויר נוכחית

הדו"ח נערך לפני 8 שעות ו 59דקות, בשעה 01:00 UTC
רוח 6קשר מכיוון צפון עם משבים עד 16קשר , משתנה בין צפון-מערב ו צפון/צפון-מזרח
טמפרטורת 22 צלסיוס
לחות 29%
לחץ 1008 hPa
ראות: 24.1קילומטר
מעט עננים בגובה 8300רגל
עננים פזורים בגובה 10000רגל
עננים בינוניים בגובה 22000רגל

METAR: CYSM 150100Z 01006G16KT 320V030 15SM FEW083 SCT100 BKN220 22/03 A2977 RMK CU2AC2CI1 LAST STFD OBS/NXT 151300Z SLP089 DENSITY ALT 1800FT

זמן: 03:59 (09:59 UTC)

תחזית

הדו"ח נערך לפני 10 שעות ו 19דקות, בשעה 23:40 UTC
תחזית בתוקף מ 15 ב 00 UTC עד 15 ב 12 UTC
רוח 8קשר מכיוון צפון
ראות: 10קילומטר
עננים בינוניים בגובה 8000רגל
מ 15 ב 0700UTC
רוח 6קשר מכיוון צפון/צפון-מזרח
ראות: 10קילומטר
עננים פזורים בגובה 8000רגל

TAF: CYSM 142340Z 1500/1512 36008KT P6SM BKN080 FM150700 02006KT P6SM SCT080 RMK NXT FCST BY 150600Z

תצפיות ותחזיות מזג אוויר לגבי יותר מ- 4,000 שדות תעופה ברחבי העולם. דוחות METAR ו- TAF.

התחנות הזמינות מסומנות בנקודות צהובות ואדומות על גבי המפה.

העבר את העכבר לנקודה הצבעונית על מנת לראות את שם התחנה.

לאחר מכן, לחץ כדי לראות את תוכן ואת תחזיות מזג האוויר.

כדי לשנות את המפה: לחץ על הכפתורים הירוקים עם הפלוס השחור כדי להתקרב; על הכפתור הירוק עם המקף כדי להתרחק; או בחיצים הירוקים למפות סמוכות.


METAR-TAF: